sensor_id;sensor_type;location;lat;lon;timestamp;P1;durP1;ratioP1;P2;durP2;ratioP2
57337;SDS011;43173;50.980;18.204;2023-11-19T00:00:47;135.80;;;43.10;;
57337;SDS011;43173;50.980;18.204;2023-11-19T00:03:12;100.70;;;35.30;;
57337;SDS011;43173;50.980;18.204;2023-11-19T00:05:38;92.70;;;33.30;;
57337;SDS011;43173;50.980;18.204;2023-11-19T00:08:04;157.00;;;45.40;;
57337;SDS011;43173;50.980;18.204;2023-11-19T00:10:31;109.80;;;35.90;;
57337;SDS011;43173;50.980;18.204;2023-11-19T00:12:57;79.40;;;33.40;;
57337;SDS011;43173;50.980;18.204;2023-11-19T00:15:22;74.00;;;30.60;;
57337;SDS011;43173;50.980;18.204;2023-11-19T00:17:49;69.50;;;26.60;;
57337;SDS011;43173;50.980;18.204;2023-11-19T00:20:15;71.80;;;28.00;;
57337;SDS011;43173;50.980;18.204;2023-11-19T00:22:44;74.10;;;28.60;;
57337;SDS011;43173;50.980;18.204;2023-11-19T00:25:13;62.90;;;25.30;;
57337;SDS011;43173;50.980;18.204;2023-11-19T00:27:39;64.30;;;25.20;;
57337;SDS011;43173;50.980;18.204;2023-11-19T00:30:05;64.20;;;27.10;;
57337;SDS011;43173;50.980;18.204;2023-11-19T00:32:32;67.60;;;27.00;;
57337;SDS011;43173;50.980;18.204;2023-11-19T00:34:58;75.00;;;27.40;;
57337;SDS011;43173;50.980;18.204;2023-11-19T00:37:24;57.60;;;25.50;;
57337;SDS011;43173;50.980;18.204;2023-11-19T00:39:50;69.70;;;26.40;;
57337;SDS011;43173;50.980;18.204;2023-11-19T00:42:17;64.90;;;26.60;;
57337;SDS011;43173;50.980;18.204;2023-11-19T00:44:43;73.00;;;30.00;;
57337;SDS011;43173;50.980;18.204;2023-11-19T00:47:08;69.80;;;28.90;;
57337;SDS011;43173;50.980;18.204;2023-11-19T00:49:34;61.90;;;26.70;;
57337;SDS011;43173;50.980;18.204;2023-11-19T00:52:00;60.40;;;25.30;;
57337;SDS011;43173;50.980;18.204;2023-11-19T00:54:27;64.00;;;25.80;;
57337;SDS011;43173;50.980;18.204;2023-11-19T00:56:53;56.40;;;23.60;;
57337;SDS011;43173;50.980;18.204;2023-11-19T00:59:19;60.20;;;25.50;;
57337;SDS011;43173;50.980;18.204;2023-11-19T01:01:44;68.00;;;27.50;;
57337;SDS011;43173;50.980;18.204;2023-11-19T01:04:10;69.00;;;28.30;;
57337;SDS011;43173;50.980;18.204;2023-11-19T01:06:36;86.90;;;32.90;;
57337;SDS011;43173;50.980;18.204;2023-11-19T01:09:02;107.40;;;37.00;;
57337;SDS011;43173;50.980;18.204;2023-11-19T01:11:27;100.40;;;35.20;;
57337;SDS011;43173;50.980;18.204;2023-11-19T01:13:53;97.60;;;35.20;;
57337;SDS011;43173;50.980;18.204;2023-11-19T01:16:19;90.80;;;34.40;;
57337;SDS011;43173;50.980;18.204;2023-11-19T01:18:49;100.00;;;35.40;;
57337;SDS011;43173;50.980;18.204;2023-11-19T01:21:15;70.20;;;28.00;;
57337;SDS011;43173;50.980;18.204;2023-11-19T01:23:41;64.80;;;26.00;;
57337;SDS011;43173;50.980;18.204;2023-11-19T01:26:11;54.00;;;22.60;;
57337;SDS011;43173;50.980;18.204;2023-11-19T01:28:40;65.70;;;26.60;;
57337;SDS011;43173;50.980;18.204;2023-11-19T01:31:14;65.70;;;24.60;;
57337;SDS011;43173;50.980;18.204;2023-11-19T01:33:40;61.90;;;25.30;;
57337;SDS011;43173;50.980;18.204;2023-11-19T01:36:07;55.50;;;22.00;;
57337;SDS011;43173;50.980;18.204;2023-11-19T01:38:34;51.30;;;22.50;;
57337;SDS011;43173;50.980;18.204;2023-11-19T01:41:00;54.10;;;22.40;;
57337;SDS011;43173;50.980;18.204;2023-11-19T01:43:33;50.50;;;21.30;;
57337;SDS011;43173;50.980;18.204;2023-11-19T01:46:04;49.60;;;20.90;;
57337;SDS011;43173;50.980;18.204;2023-11-19T01:48:31;50.10;;;21.00;;
57337;SDS011;43173;50.980;18.204;2023-11-19T01:50:58;49.40;;;19.90;;
57337;SDS011;43173;50.980;18.204;2023-11-19T01:53:24;47.70;;;19.80;;
57337;SDS011;43173;50.980;18.204;2023-11-19T01:55:50;52.00;;;19.20;;
57337;SDS011;43173;50.980;18.204;2023-11-19T01:58:17;37.00;;;16.20;;
57337;SDS011;43173;50.980;18.204;2023-11-19T02:00:44;46.70;;;20.00;;
57337;SDS011;43173;50.980;18.204;2023-11-19T02:03:11;42.70;;;18.40;;
57337;SDS011;43173;50.980;18.204;2023-11-19T02:05:37;48.10;;;19.50;;
57337;SDS011;43173;50.980;18.204;2023-11-19T02:08:04;46.10;;;19.90;;
57337;SDS011;43173;50.980;18.204;2023-11-19T02:10:29;52.70;;;21.00;;
57337;SDS011;43173;50.980;18.204;2023-11-19T02:12:57;48.10;;;19.70;;
57337;SDS011;43173;50.980;18.204;2023-11-19T02:15:24;50.10;;;20.60;;
57337;SDS011;43173;50.980;18.204;2023-11-19T02:17:50;47.80;;;20.00;;
57337;SDS011;43173;50.980;18.204;2023-11-19T02:20:16;42.20;;;17.90;;
57337;SDS011;43173;50.980;18.204;2023-11-19T02:22:45;47.20;;;20.10;;
57337;SDS011;43173;50.980;18.204;2023-11-19T02:25:17;40.50;;;18.00;;
57337;SDS011;43173;50.980;18.204;2023-11-19T02:27:56;39.80;;;17.50;;
57337;SDS011;43173;50.980;18.204;2023-11-19T02:30:23;45.20;;;19.20;;
57337;SDS011;43173;50.980;18.204;2023-11-19T02:32:56;35.90;;;15.90;;
57337;SDS011;43173;50.980;18.204;2023-11-19T02:35:24;43.80;;;18.50;;
57337;SDS011;43173;50.980;18.204;2023-11-19T02:37:51;36.20;;;15.80;;
57337;SDS011;43173;50.980;18.204;2023-11-19T02:40:17;39.40;;;16.20;;
57337;SDS011;43173;50.980;18.204;2023-11-19T02:42:42;41.50;;;17.90;;
57337;SDS011;43173;50.980;18.204;2023-11-19T02:45:08;37.10;;;16.50;;
57337;SDS011;43173;50.980;18.204;2023-11-19T02:47:42;43.30;;;18.50;;
57337;SDS011;43173;50.980;18.204;2023-11-19T02:50:10;47.40;;;18.90;;
57337;SDS011;43173;50.980;18.204;2023-11-19T02:52:42;40.30;;;16.40;;
57337;SDS011;43173;50.980;18.204;2023-11-19T02:55:10;37.80;;;16.00;;
57337;SDS011;43173;50.980;18.204;2023-11-19T02:57:38;43.20;;;17.80;;
57337;SDS011;43173;50.980;18.204;2023-11-19T03:00:17;36.00;;;16.50;;
57337;SDS011;43173;50.980;18.204;2023-11-19T03:02:48;45.60;;;18.00;;
57337;SDS011;43173;50.980;18.204;2023-11-19T03:05:23;41.00;;;17.60;;
57337;SDS011;43173;50.980;18.204;2023-11-19T03:07:50;48.20;;;20.00;;
57337;SDS011;43173;50.980;18.204;2023-11-19T03:10:15;46.10;;;20.20;;
57337;SDS011;43173;50.980;18.204;2023-11-19T03:12:42;43.40;;;19.00;;
57337;SDS011;43173;50.980;18.204;2023-11-19T03:15:08;47.40;;;19.80;;
57337;SDS011;43173;50.980;18.204;2023-11-19T03:17:41;44.80;;;18.40;;
57337;SDS011;43173;50.980;18.204;2023-11-19T03:20:08;43.00;;;18.60;;
57337;SDS011;43173;50.980;18.204;2023-11-19T03:22:36;37.50;;;15.80;;
57337;SDS011;43173;50.980;18.204;2023-11-19T03:25:03;38.60;;;15.90;;
57337;SDS011;43173;50.980;18.204;2023-11-19T03:27:29;44.60;;;17.30;;
57337;SDS011;43173;50.980;18.204;2023-11-19T03:29:55;54.00;;;20.30;;
57337;SDS011;43173;50.980;18.204;2023-11-19T03:32:20;50.80;;;19.10;;
57337;SDS011;43173;50.980;18.204;2023-11-19T03:34:46;42.30;;;18.30;;
57337;SDS011;43173;50.980;18.204;2023-11-19T03:37:11;52.70;;;22.00;;
57337;SDS011;43173;50.980;18.204;2023-11-19T03:39:41;51.70;;;21.10;;
57337;SDS011;43173;50.980;18.204;2023-11-19T03:42:06;46.70;;;20.50;;
57337;SDS011;43173;50.980;18.204;2023-11-19T03:44:32;46.90;;;19.30;;
57337;SDS011;43173;50.980;18.204;2023-11-19T03:46:58;51.70;;;20.20;;
57337;SDS011;43173;50.980;18.204;2023-11-19T03:49:23;43.50;;;19.30;;
57337;SDS011;43173;50.980;18.204;2023-11-19T03:51:49;49.40;;;21.50;;
57337;SDS011;43173;50.980;18.204;2023-11-19T03:54:15;44.90;;;17.60;;
57337;SDS011;43173;50.980;18.204;2023-11-19T03:56:40;41.70;;;17.30;;
57337;SDS011;43173;50.980;18.204;2023-11-19T03:59:06;43.70;;;19.40;;
57337;SDS011;43173;50.980;18.204;2023-11-19T04:01:33;43.20;;;17.70;;
57337;SDS011;43173;50.980;18.204;2023-11-19T04:03:59;45.40;;;20.00;;
57337;SDS011;43173;50.980;18.204;2023-11-19T04:06:25;45.90;;;19.60;;
57337;SDS011;43173;50.980;18.204;2023-11-19T04:08:51;42.40;;;18.30;;
57337;SDS011;43173;50.980;18.204;2023-11-19T04:11:17;47.90;;;20.10;;
57337;SDS011;43173;50.980;18.204;2023-11-19T04:13:42;49.10;;;21.00;;
57337;SDS011;43173;50.980;18.204;2023-11-19T04:16:09;46.40;;;19.40;;
57337;SDS011;43173;50.980;18.204;2023-11-19T04:18:35;37.80;;;16.80;;
57337;SDS011;43173;50.980;18.204;2023-11-19T04:21:01;47.30;;;18.50;;
57337;SDS011;43173;50.980;18.204;2023-11-19T04:23:26;39.30;;;17.20;;
57337;SDS011;43173;50.980;18.204;2023-11-19T04:25:52;49.00;;;20.00;;
57337;SDS011;43173;50.980;18.204;2023-11-19T04:28:17;41.00;;;17.90;;
57337;SDS011;43173;50.980;18.204;2023-11-19T04:30:43;44.00;;;20.00;;
57337;SDS011;43173;50.980;18.204;2023-11-19T04:33:09;46.90;;;20.80;;
57337;SDS011;43173;50.980;18.204;2023-11-19T04:35:35;49.90;;;20.40;;
57337;SDS011;43173;50.980;18.204;2023-11-19T04:38:01;48.40;;;19.50;;
57337;SDS011;43173;50.980;18.204;2023-11-19T04:40:26;45.30;;;19.60;;
57337;SDS011;43173;50.980;18.204;2023-11-19T04:42:52;54.00;;;21.80;;
57337;SDS011;43173;50.980;18.204;2023-11-19T04:45:18;40.10;;;19.10;;
57337;SDS011;43173;50.980;18.204;2023-11-19T04:47:43;48.50;;;20.90;;
57337;SDS011;43173;50.980;18.204;2023-11-19T04:50:09;49.90;;;22.60;;
57337;SDS011;43173;50.980;18.204;2023-11-19T04:52:38;53.10;;;23.40;;
57337;SDS011;43173;50.980;18.204;2023-11-19T04:55:10;52.60;;;22.30;;
57337;SDS011;43173;50.980;18.204;2023-11-19T04:57:40;45.70;;;19.90;;
57337;SDS011;43173;50.980;18.204;2023-11-19T05:00:06;49.70;;;20.60;;
57337;SDS011;43173;50.980;18.204;2023-11-19T05:02:36;54.90;;;24.70;;
57337;SDS011;43173;50.980;18.204;2023-11-19T05:05:02;69.70;;;27.80;;
57337;SDS011;43173;50.980;18.204;2023-11-19T05:07:31;74.10;;;30.90;;
57337;SDS011;43173;50.980;18.204;2023-11-19T05:09:57;65.90;;;27.40;;
57337;SDS011;43173;50.980;18.204;2023-11-19T05:12:23;58.10;;;25.40;;
57337;SDS011;43173;50.980;18.204;2023-11-19T05:14:49;60.60;;;27.40;;
57337;SDS011;43173;50.980;18.204;2023-11-19T05:17:17;54.10;;;23.80;;
57337;SDS011;43173;50.980;18.204;2023-11-19T05:19:47;58.90;;;24.80;;
57337;SDS011;43173;50.980;18.204;2023-11-19T05:22:14;56.70;;;23.30;;
57337;SDS011;43173;50.980;18.204;2023-11-19T05:24:39;54.80;;;21.60;;
57337;SDS011;43173;50.980;18.204;2023-11-19T05:27:06;40.60;;;19.70;;
57337;SDS011;43173;50.980;18.204;2023-11-19T05:29:33;50.80;;;22.60;;
57337;SDS011;43173;50.980;18.204;2023-11-19T05:31:59;52.70;;;22.80;;
57337;SDS011;43173;50.980;18.204;2023-11-19T05:34:24;47.40;;;20.30;;
57337;SDS011;43173;50.980;18.204;2023-11-19T05:36:51;51.90;;;23.50;;
57337;SDS011;43173;50.980;18.204;2023-11-19T05:39:17;48.60;;;20.80;;
57337;SDS011;43173;50.980;18.204;2023-11-19T05:41:45;48.90;;;19.90;;
57337;SDS011;43173;50.980;18.204;2023-11-19T05:44:11;57.30;;;23.30;;
57337;SDS011;43173;50.980;18.204;2023-11-19T05:46:36;57.00;;;21.00;;
57337;SDS011;43173;50.980;18.204;2023-11-19T05:49:08;53.70;;;20.80;;
57337;SDS011;43173;50.980;18.204;2023-11-19T05:51:37;48.20;;;21.90;;
57337;SDS011;43173;50.980;18.204;2023-11-19T05:54:05;44.80;;;19.20;;
57337;SDS011;43173;50.980;18.204;2023-11-19T05:56:35;46.60;;;22.50;;
57337;SDS011;43173;50.980;18.204;2023-11-19T05:59:01;51.00;;;21.60;;
57337;SDS011;43173;50.980;18.204;2023-11-19T06:01:33;50.40;;;21.30;;
57337;SDS011;43173;50.980;18.204;2023-11-19T06:04:02;47.60;;;22.10;;
57337;SDS011;43173;50.980;18.204;2023-11-19T06:06:28;50.90;;;22.80;;
57337;SDS011;43173;50.980;18.204;2023-11-19T06:08:54;50.60;;;22.00;;
57337;SDS011;43173;50.980;18.204;2023-11-19T06:11:20;45.30;;;20.40;;
57337;SDS011;43173;50.980;18.204;2023-11-19T06:13:46;45.30;;;18.40;;
57337;SDS011;43173;50.980;18.204;2023-11-19T06:16:16;32.50;;;15.90;;
57337;SDS011;43173;50.980;18.204;2023-11-19T06:18:41;54.70;;;22.90;;
57337;SDS011;43173;50.980;18.204;2023-11-19T06:21:09;51.40;;;22.10;;
57337;SDS011;43173;50.980;18.204;2023-11-19T06:23:35;40.40;;;17.20;;
57337;SDS011;43173;50.980;18.204;2023-11-19T06:26:01;49.90;;;21.70;;
57337;SDS011;43173;50.980;18.204;2023-11-19T06:28:26;48.20;;;22.50;;
57337;SDS011;43173;50.980;18.204;2023-11-19T06:30:53;41.60;;;17.90;;
57337;SDS011;43173;50.980;18.204;2023-11-19T06:33:18;48.20;;;21.90;;
57337;SDS011;43173;50.980;18.204;2023-11-19T06:35:44;47.10;;;20.90;;
57337;SDS011;43173;50.980;18.204;2023-11-19T06:38:10;39.00;;;17.70;;
57337;SDS011;43173;50.980;18.204;2023-11-19T06:40:36;29.20;;;13.60;;
57337;SDS011;43173;50.980;18.204;2023-11-19T06:43:01;45.50;;;20.00;;
57337;SDS011;43173;50.980;18.204;2023-11-19T06:48:02;42.90;;;18.70;;
57337;SDS011;43173;50.980;18.204;2023-11-19T06:50:31;34.70;;;16.30;;
57337;SDS011;43173;50.980;18.204;2023-11-19T06:52:57;41.80;;;18.00;;
57337;SDS011;43173;50.980;18.204;2023-11-19T06:55:23;43.40;;;21.20;;
57337;SDS011;43173;50.980;18.204;2023-11-19T06:57:49;43.60;;;19.60;;
57337;SDS011;43173;50.980;18.204;2023-11-19T07:00:24;46.40;;;20.20;;
57337;SDS011;43173;50.980;18.204;2023-11-19T07:02:49;49.60;;;22.20;;
57337;SDS011;43173;50.980;18.204;2023-11-19T07:05:16;47.10;;;20.00;;
57337;SDS011;43173;50.980;18.204;2023-11-19T07:07:42;30.60;;;13.60;;
57337;SDS011;43173;50.980;18.204;2023-11-19T07:10:07;43.80;;;20.20;;
57337;SDS011;43173;50.980;18.204;2023-11-19T07:12:34;44.40;;;18.80;;
57337;SDS011;43173;50.980;18.204;2023-11-19T07:15:02;46.00;;;22.40;;
57337;SDS011;43173;50.980;18.204;2023-11-19T07:17:29;44.70;;;19.80;;
57337;SDS011;43173;50.980;18.204;2023-11-19T07:19:55;49.10;;;21.20;;
57337;SDS011;43173;50.980;18.204;2023-11-19T07:22:24;40.00;;;19.00;;
57337;SDS011;43173;50.980;18.204;2023-11-19T07:24:50;37.90;;;17.40;;
57337;SDS011;43173;50.980;18.204;2023-11-19T07:27:17;47.60;;;21.20;;
57337;SDS011;43173;50.980;18.204;2023-11-19T07:29:43;47.90;;;20.60;;
57337;SDS011;43173;50.980;18.204;2023-11-19T07:32:10;45.80;;;20.50;;
57337;SDS011;43173;50.980;18.204;2023-11-19T07:46:18;44.20;;;23.00;;
57337;SDS011;43173;50.980;18.204;2023-11-19T07:48:47;44.10;;;22.50;;
57337;SDS011;43173;50.980;18.204;2023-11-19T07:51:13;47.10;;;21.40;;
57337;SDS011;43173;50.980;18.204;2023-11-19T07:53:39;29.50;;;15.30;;
57337;SDS011;43173;50.980;18.204;2023-11-19T07:56:06;37.90;;;19.00;;
57337;SDS011;43173;50.980;18.204;2023-11-19T07:58:32;44.80;;;21.30;;
57337;SDS011;43173;50.980;18.204;2023-11-19T08:00:58;47.80;;;21.90;;
57337;SDS011;43173;50.980;18.204;2023-11-19T08:03:24;40.30;;;17.80;;
57337;SDS011;43173;50.980;18.204;2023-11-19T08:05:50;45.30;;;21.20;;
57337;SDS011;43173;50.980;18.204;2023-11-19T08:08:16;32.40;;;16.20;;
57337;SDS011;43173;50.980;18.204;2023-11-19T08:10:42;36.60;;;15.70;;
57337;SDS011;43173;50.980;18.204;2023-11-19T08:13:08;40.70;;;18.40;;
57337;SDS011;43173;50.980;18.204;2023-11-19T08:15:34;24.80;;;12.40;;
57337;SDS011;43173;50.980;18.204;2023-11-19T08:18:00;41.00;;;19.70;;
57337;SDS011;43173;50.980;18.204;2023-11-19T08:20:26;39.60;;;19.00;;
57337;SDS011;43173;50.980;18.204;2023-11-19T08:22:51;35.10;;;15.10;;
57337;SDS011;43173;50.980;18.204;2023-11-19T08:25:17;38.50;;;18.80;;
57337;SDS011;43173;50.980;18.204;2023-11-19T08:27:43;31.50;;;15.10;;
57337;SDS011;43173;50.980;18.204;2023-11-19T08:30:08;37.10;;;18.70;;
57337;SDS011;43173;50.980;18.204;2023-11-19T08:32:35;31.30;;;14.60;;
57337;SDS011;43173;50.980;18.204;2023-11-19T08:35:01;37.40;;;18.20;;
57337;SDS011;43173;50.980;18.204;2023-11-19T08:37:27;40.70;;;19.20;;
57337;SDS011;43173;50.980;18.204;2023-11-19T08:39:53;31.80;;;15.70;;
57337;SDS011;43173;50.980;18.204;2023-11-19T08:42:19;35.80;;;17.50;;
57337;SDS011;43173;50.980;18.204;2023-11-19T08:44:48;30.10;;;14.90;;
57337;SDS011;43173;50.980;18.204;2023-11-19T08:47:15;34.60;;;15.90;;
57337;SDS011;43173;50.980;18.204;2023-11-19T08:49:43;32.60;;;16.40;;
57337;SDS011;43173;50.980;18.204;2023-11-19T08:52:09;34.70;;;16.70;;
57337;SDS011;43173;50.980;18.204;2023-11-19T08:54:42;26.00;;;11.80;;
57337;SDS011;43173;50.980;18.204;2023-11-19T08:57:08;34.90;;;17.70;;
57337;SDS011;43173;50.980;18.204;2023-11-19T08:59:34;24.10;;;11.60;;
57337;SDS011;43173;50.980;18.204;2023-11-19T09:01:59;29.30;;;14.20;;
57337;SDS011;43173;50.980;18.204;2023-11-19T09:04:25;34.00;;;15.80;;
57337;SDS011;43173;50.980;18.204;2023-11-19T09:06:51;33.90;;;15.80;;
57337;SDS011;43173;50.980;18.204;2023-11-19T09:09:17;30.40;;;14.60;;
57337;SDS011;43173;50.980;18.204;2023-11-19T09:11:42;32.90;;;15.40;;
57337;SDS011;43173;50.980;18.204;2023-11-19T09:14:08;22.40;;;11.70;;
57337;SDS011;43173;50.980;18.204;2023-11-19T09:16:34;32.20;;;16.30;;
57337;SDS011;43173;50.980;18.204;2023-11-19T09:18:59;26.90;;;13.00;;
57337;SDS011;43173;50.980;18.204;2023-11-19T09:21:26;29.90;;;14.10;;
57337;SDS011;43173;50.980;18.204;2023-11-19T09:23:51;25.20;;;13.20;;
57337;SDS011;43173;50.980;18.204;2023-11-19T09:26:19;27.20;;;13.70;;
57337;SDS011;43173;50.980;18.204;2023-11-19T09:28:45;21.50;;;11.20;;
57337;SDS011;43173;50.980;18.204;2023-11-19T09:31:14;27.20;;;13.10;;
57337;SDS011;43173;50.980;18.204;2023-11-19T09:33:40;27.60;;;12.50;;
57337;SDS011;43173;50.980;18.204;2023-11-19T09:38:42;27.20;;;13.70;;
57337;SDS011;43173;50.980;18.204;2023-11-19T09:41:09;28.20;;;12.70;;
57337;SDS011;43173;50.980;18.204;2023-11-19T09:43:38;31.30;;;15.30;;
57337;SDS011;43173;50.980;18.204;2023-11-19T09:46:05;29.50;;;12.80;;
57337;SDS011;43173;50.980;18.204;2023-11-19T09:48:35;26.00;;;11.30;;
57337;SDS011;43173;50.980;18.204;2023-11-19T09:51:05;34.00;;;16.50;;
57337;SDS011;43173;50.980;18.204;2023-11-19T09:53:33;28.20;;;12.40;;
57337;SDS011;43173;50.980;18.204;2023-11-19T09:56:00;29.70;;;12.70;;
57337;SDS011;43173;50.980;18.204;2023-11-19T09:58:28;30.80;;;15.50;;
57337;SDS011;43173;50.980;18.204;2023-11-19T10:00:55;28.80;;;14.50;;
57337;SDS011;43173;50.980;18.204;2023-11-19T10:03:24;31.40;;;14.40;;
57337;SDS011;43173;50.980;18.204;2023-11-19T10:05:53;28.80;;;12.30;;
57337;SDS011;43173;50.980;18.204;2023-11-19T10:08:20;30.70;;;14.80;;
57337;SDS011;43173;50.980;18.204;2023-11-19T10:10:47;29.50;;;14.50;;
57337;SDS011;43173;50.980;18.204;2023-11-19T10:13:12;37.70;;;16.90;;
57337;SDS011;43173;50.980;18.204;2023-11-19T10:15:40;32.00;;;15.00;;
57337;SDS011;43173;50.980;18.204;2023-11-19T10:18:06;27.50;;;12.50;;
57337;SDS011;43173;50.980;18.204;2023-11-19T10:20:35;27.10;;;14.50;;
57337;SDS011;43173;50.980;18.204;2023-11-19T10:23:01;24.20;;;11.70;;
57337;SDS011;43173;50.980;18.204;2023-11-19T10:25:27;29.60;;;14.90;;
57337;SDS011;43173;50.980;18.204;2023-11-19T10:27:54;28.10;;;14.60;;
57337;SDS011;43173;50.980;18.204;2023-11-19T10:30:25;29.80;;;14.60;;
57337;SDS011;43173;50.980;18.204;2023-11-19T10:38:18;30.90;;;14.30;;
57337;SDS011;43173;50.980;18.204;2023-11-19T10:40:44;27.20;;;12.10;;
57337;SDS011;43173;50.980;18.204;2023-11-19T10:43:10;25.30;;;12.10;;
57337;SDS011;43173;50.980;18.204;2023-11-19T10:45:36;21.70;;;11.40;;
57337;SDS011;43173;50.980;18.204;2023-11-19T10:48:03;27.20;;;14.70;;
57337;SDS011;43173;50.980;18.204;2023-11-19T10:50:42;25.80;;;12.70;;
57337;SDS011;43173;50.980;18.204;2023-11-19T10:53:10;20.90;;;10.00;;
57337;SDS011;43173;50.980;18.204;2023-11-19T10:55:38;26.00;;;12.50;;
57337;SDS011;43173;50.980;18.204;2023-11-19T10:58:05;25.60;;;12.30;;
57337;SDS011;43173;50.980;18.204;2023-11-19T11:00:42;23.90;;;11.70;;
57337;SDS011;43173;50.980;18.204;2023-11-19T11:03:15;18.90;;;10.00;;
57337;SDS011;43173;50.980;18.204;2023-11-19T11:05:42;24.20;;;12.30;;
57337;SDS011;43173;50.980;18.204;2023-11-19T11:08:09;20.40;;;11.20;;
57337;SDS011;43173;50.980;18.204;2023-11-19T11:10:37;20.80;;;10.10;;
57337;SDS011;43173;50.980;18.204;2023-11-19T11:13:05;24.90;;;13.40;;
57337;SDS011;43173;50.980;18.204;2023-11-19T11:15:31;21.80;;;11.90;;
57337;SDS011;43173;50.980;18.204;2023-11-19T11:18:01;17.70;;;9.80;;
57337;SDS011;43173;50.980;18.204;2023-11-19T11:20:30;21.90;;;10.20;;
57337;SDS011;43173;50.980;18.204;2023-11-19T11:23:07;21.60;;;8.20;;
57337;SDS011;43173;50.980;18.204;2023-11-19T11:25:47;27.80;;;13.80;;
57337;SDS011;43173;50.980;18.204;2023-11-19T11:28:43;25.50;;;13.00;;
57337;SDS011;43173;50.980;18.204;2023-11-19T11:36:45;26.20;;;13.80;;
57337;SDS011;43173;50.980;18.204;2023-11-19T11:39:16;22.60;;;12.20;;
57337;SDS011;43173;50.980;18.204;2023-11-19T11:41:42;19.20;;;11.30;;
57337;SDS011;43173;50.980;18.204;2023-11-19T11:44:08;21.10;;;12.20;;
57337;SDS011;43173;50.980;18.204;2023-11-19T11:49:02;27.00;;;13.80;;
57337;SDS011;43173;50.980;18.204;2023-11-19T11:54:11;16.30;;;8.70;;
57337;SDS011;43173;50.980;18.204;2023-11-19T12:02:05;21.20;;;11.80;;
57337;SDS011;43173;50.980;18.204;2023-11-19T12:04:37;17.20;;;10.00;;
57337;SDS011;43173;50.980;18.204;2023-11-19T12:24:02;24.60;;;13.40;;
57337;SDS011;43173;50.980;18.204;2023-11-19T12:26:36;19.10;;;9.70;;
57337;SDS011;43173;50.980;18.204;2023-11-19T12:29:03;17.40;;;10.20;;
57337;SDS011;43173;50.980;18.204;2023-11-19T12:31:31;21.50;;;10.90;;
57337;SDS011;43173;50.980;18.204;2023-11-19T12:33:57;19.00;;;8.80;;
57337;SDS011;43173;50.980;18.204;2023-11-19T12:36:22;19.00;;;10.90;;
57337;SDS011;43173;50.980;18.204;2023-11-19T12:38:48;17.80;;;10.30;;
57337;SDS011;43173;50.980;18.204;2023-11-19T12:41:14;19.70;;;10.90;;
57337;SDS011;43173;50.980;18.204;2023-11-19T12:43:43;23.30;;;12.70;;
57337;SDS011;43173;50.980;18.204;2023-11-19T12:48:52;19.70;;;11.30;;
57337;SDS011;43173;50.980;18.204;2023-11-19T12:51:18;20.50;;;9.70;;
57337;SDS011;43173;50.980;18.204;2023-11-19T12:53:48;19.60;;;10.50;;
57337;SDS011;43173;50.980;18.204;2023-11-19T12:56:23;19.90;;;11.40;;
57337;SDS011;43173;50.980;18.204;2023-11-19T12:58:50;16.30;;;9.50;;
57337;SDS011;43173;50.980;18.204;2023-11-19T13:01:16;18.40;;;10.50;;
57337;SDS011;43173;50.980;18.204;2023-11-19T13:03:44;15.30;;;8.90;;
57337;SDS011;43173;50.980;18.204;2023-11-19T13:06:10;16.80;;;9.70;;
57337;SDS011;43173;50.980;18.204;2023-11-19T13:08:41;17.40;;;9.80;;
57337;SDS011;43173;50.980;18.204;2023-11-19T13:11:10;21.50;;;12.00;;
57337;SDS011;43173;50.980;18.204;2023-11-19T13:16:19;20.60;;;11.50;;
57337;SDS011;43173;50.980;18.204;2023-11-19T13:18:45;17.30;;;9.70;;
57337;SDS011;43173;50.980;18.204;2023-11-19T13:21:11;18.40;;;11.10;;
57337;SDS011;43173;50.980;18.204;2023-11-19T13:23:36;33.70;;;16.30;;
57337;SDS011;43173;50.980;18.204;2023-11-19T13:26:02;20.40;;;10.60;;
57337;SDS011;43173;50.980;18.204;2023-11-19T13:28:29;19.40;;;10.50;;
57337;SDS011;43173;50.980;18.204;2023-11-19T13:30:54;19.90;;;11.20;;
57337;SDS011;43173;50.980;18.204;2023-11-19T13:33:20;18.20;;;9.30;;
57337;SDS011;43173;50.980;18.204;2023-11-19T13:35:46;15.90;;;8.40;;
57337;SDS011;43173;50.980;18.204;2023-11-19T13:38:12;21.70;;;12.10;;
57337;SDS011;43173;50.980;18.204;2023-11-19T13:40:38;19.20;;;11.00;;
57337;SDS011;43173;50.980;18.204;2023-11-19T13:43:04;17.50;;;9.30;;
57337;SDS011;43173;50.980;18.204;2023-11-19T13:45:30;16.00;;;9.90;;
57337;SDS011;43173;50.980;18.204;2023-11-19T13:47:55;17.20;;;9.10;;
57337;SDS011;43173;50.980;18.204;2023-11-19T13:50:21;16.50;;;9.40;;
57337;SDS011;43173;50.980;18.204;2023-11-19T13:52:48;16.20;;;9.40;;
57337;SDS011;43173;50.980;18.204;2023-11-19T13:55:14;14.50;;;8.10;;
57337;SDS011;43173;50.980;18.204;2023-11-19T13:57:40;16.00;;;8.40;;
57337;SDS011;43173;50.980;18.204;2023-11-19T14:00:07;19.00;;;10.00;;
57337;SDS011;43173;50.980;18.204;2023-11-19T14:02:39;23.70;;;12.30;;
57337;SDS011;43173;50.980;18.204;2023-11-19T14:05:06;20.50;;;11.30;;
57337;SDS011;43173;50.980;18.204;2023-11-19T14:07:32;22.30;;;11.90;;
57337;SDS011;43173;50.980;18.204;2023-11-19T14:09:58;16.30;;;9.90;;
57337;SDS011;43173;50.980;18.204;2023-11-19T14:12:23;16.10;;;9.40;;
57337;SDS011;43173;50.980;18.204;2023-11-19T14:14:49;15.60;;;9.30;;
57337;SDS011;43173;50.980;18.204;2023-11-19T14:17:15;16.30;;;8.50;;
57337;SDS011;43173;50.980;18.204;2023-11-19T14:19:44;13.40;;;7.40;;
57337;SDS011;43173;50.980;18.204;2023-11-19T14:22:10;16.00;;;8.30;;
57337;SDS011;43173;50.980;18.204;2023-11-19T14:24:36;14.00;;;8.20;;
57337;SDS011;43173;50.980;18.204;2023-11-19T14:27:03;16.70;;;9.90;;
57337;SDS011;43173;50.980;18.204;2023-11-19T14:29:29;18.30;;;8.50;;
57337;SDS011;43173;50.980;18.204;2023-11-19T14:31:57;14.20;;;8.60;;
57337;SDS011;43173;50.980;18.204;2023-11-19T14:34:24;14.50;;;8.30;;
57337;SDS011;43173;50.980;18.204;2023-11-19T14:36:51;16.20;;;8.80;;
57337;SDS011;43173;50.980;18.204;2023-11-19T14:39:19;20.70;;;10.10;;
57337;SDS011;43173;50.980;18.204;2023-11-19T14:41:44;15.80;;;8.80;;
57337;SDS011;43173;50.980;18.204;2023-11-19T14:44:10;16.00;;;8.90;;
57337;SDS011;43173;50.980;18.204;2023-11-19T14:46:36;17.20;;;8.80;;
57337;SDS011;43173;50.980;18.204;2023-11-19T14:49:02;14.30;;;7.40;;
57337;SDS011;43173;50.980;18.204;2023-11-19T14:51:29;15.70;;;8.80;;
57337;SDS011;43173;50.980;18.204;2023-11-19T14:53:55;14.60;;;8.20;;
57337;SDS011;43173;50.980;18.204;2023-11-19T14:56:21;13.80;;;7.40;;
57337;SDS011;43173;50.980;18.204;2023-11-19T14:58:47;14.60;;;8.40;;
57337;SDS011;43173;50.980;18.204;2023-11-19T15:01:12;16.90;;;9.80;;
57337;SDS011;43173;50.980;18.204;2023-11-19T15:03:39;16.40;;;9.70;;
57337;SDS011;43173;50.980;18.204;2023-11-19T15:06:05;15.70;;;9.30;;
57337;SDS011;43173;50.980;18.204;2023-11-19T15:08:32;18.90;;;10.50;;
57337;SDS011;43173;50.980;18.204;2023-11-19T15:10:58;15.50;;;9.50;;